Data for 05/30/2014

Time Sea-Level Adjusted Pressure Absolute Pressure Temperature Relative Humidity Dew Point   
(mb) (inHg) (mb) (inHg) (C) (F) (%) (C) (F)
00:05 1021 30.15 850 25.1 8.1 46.6 56 -0.2 31.7
00:10 1021 30.15 850 25.1 8.1 46.7 56 -0.1 31.9
00:15 1021 30.15 850 25.1 8.1 46.6 55 -0.3 31.5
00:20 1021 30.15 850 25.1 8.1 46.6 56 -0 31.9
00:25 1021 30.15 850 25.1 7.8 46 57 -0.1 31.8
00:30 1021 30.15 850 25.1 7.5 45.5 59 -0.1 31.9
00:35 1021 30.15 850 25.1 7.2 44.9 59 -0.3 31.5
00:40 1021 30.15 850 25.1 7.1 44.9 59 -0.3 31.4
00:45 1021 30.15 850 25.1 7.1 44.7 59 -0.5 31.2
00:50 1021 30.15 850 25.1 7.1 44.7 58 -0.5 31.1
00:55 1021 30.15 850 25.1 6.9 44.5 58 -0.8 30.6
01:00 1021 30.15 850 25.1 7.2 44.9 54 -1.5 29.4
01:05 1021 30.15 850 25.1 7.7 45.8 54 -1.1 30
01:10 1021 30.15 850 25.1 7.8 46 53 -1.3 29.7
01:15 1021 30.15 850 25.1 8.2 46.8 48 -2.2 28
01:20 1021 30.15 850 25.1 8.8 47.9 48 -1.4 29.4
01:25 1021 30.15 850 25.1 9.3 48.8 44 -2.2 28
01:30 1021 30.15 850 25.1 9 48.3 50 -0.8 30.5
01:35 1021 30.15 851 25.13 8.2 46.8 52 -1.1 30
01:40 1021 30.15 851 25.13 7.8 46 51 -1.6 29
01:45 1021 30.15 851 25.13 8 46.3 52 -1.2 29.9
01:50 1021 30.15 851 25.13 7.7 45.9 54 -1.1 30.1
01:55 1022 30.18 851 25.13 7.4 45.3 54 -1.2 29.8
02:00 1022 30.18 851 25.13 7.3 45.1 54 -1.3 29.6
02:05 1022 30.18 851 25.13 7.2 45 55 -1.2 29.9
02:10 1022 30.18 851 25.13 7.1 44.7 54 -1.5 29.3
02:15 1022 30.18 851 25.13 7.3 45.1 56 -0.9 30.5
02:20 1022 30.18 851 25.13 7 44.7 55 -1.3 29.6
02:25 1022 30.18 851 25.13 6.9 44.4 56 -1.1 30
02:30 1022 30.18 851 25.13 6.7 44 57 -1.2 29.8
02:35 1022 30.18 851 25.13 6.7 44 58 -1.1 30
02:40 1022 30.18 851 25.13 6.5 43.7 59 -0.9 30.3
02:45 1022 30.18 851 25.13 6.3 43.3 61 -0.8 30.6
02:50 1022 30.18 851 25.13 6 42.7 61 -1 30.1
02:55 1022 30.18 851 25.13 5.9 42.6 62 -0.7 30.7
03:00 1022 30.18 851 25.13 5.7 42.2 63 -0.7 30.7
03:05 1022 30.18 851 25.13 5.4 41.8 64 -0.8 30.6
03:10 1022 30.18 851 25.13 5.5 41.8 64 -0.8 30.6
03:15 1022 30.18 851 25.13 5.2 41.4 65 -0.7 30.7
03:20 1022 30.18 851 25.13 5.1 41.2 65 -0.8 30.5
03:25 1022 30.18 851 25.13 5.1 41.1 65 -1 30.2
03:30 1022 30.18 851 25.13 5.1 41.2 64 -1.1 30
03:35 1022 30.18 851 25.13 5.1 41.2 65 -0.9 30.3
03:40 1022 30.18 851 25.13 5 41 63 -1.3 29.6
03:45 1022 30.18 851 25.13 5.6 42.2 59 -1.7 29
03:50 1022 30.18 851 25.13 5.8 42.4 59 -1.6 29.2
03:55 1022 30.18 851 25.13 5.8 42.5 58 -1.7 29
04:00 1022 30.18 851 25.13 5.8 42.5 61 -1.2 29.9
04:05 1022 30.18 851 25.13 5.5 42 62 -1.2 29.8
04:10 1022 30.18 851 25.13 5.5 41.9 63 -0.9 30.3
04:15 1022 30.18 851 25.13 5.4 41.8 61 -1.4 29.5
04:20 1022 30.18 851 25.13 5.8 42.4 61 -1.2 29.9
04:25 1022 30.18 851 25.13 5.6 42.2 62 -1.1 30
04:30 1022 30.18 851 25.13 5.6 42 60 -1.5 29.2
04:35 1022 30.18 851 25.13 5.7 42.3 60 -1.4 29.4
04:40 1022 30.18 851 25.13 5.6 42.2 61 -1.2 29.8
04:45 1022 30.18 851 25.13 5.3 41.6 62 -1.4 29.4
04:50 1022 30.18 851 25.13 5.3 41.6 60 -1.7 29
04:55 1022 30.18 851 25.13 5.4 41.7 62 -1.4 29.5
05:00 1022 30.18 851 25.13 5.4 41.7 62 -1.2 29.8
05:05 1022 30.18 852 25.16 5.4 41.7 63 -1.1 29.9
05:10 1022 30.18 852 25.16 5.5 41.9 62 -1.1 30
05:15 1022 30.18 852 25.16 5.4 41.7 63 -1 30.2
05:20 1022 30.18 852 25.16 5.3 41.5 64 -0.9 30.4
05:25 1022 30.18 852 25.16 5.1 41.2 66 -0.8 30.6
05:30 1022 30.18 852 25.16 4.9 40.9 66 -0.8 30.5
05:35 1022 30.18 852 25.16 4.9 40.9 66 -0.9 30.4
05:40 1022 30.18 852 25.16 5 41.1 66 -0.8 30.6
05:45 1022 30.18 852 25.16 5.3 41.5 65 -0.8 30.6
05:50 1022 30.18 852 25.16 5.7 42.2 64 -0.7 30.8
05:55 1023 30.21 852 25.16 6.1 43 61 -0.9 30.4
06:00 1023 30.21 852 25.16 6.5 43.8 59 -0.9 30.5
06:05 1023 30.21 852 25.16 7.1 44.7 57 -0.9 30.4
06:10 1023 30.21 852 25.16 7.4 45.3 55 -1 30.1
06:15 1023 30.21 852 25.16 7.8 46.1 54 -1 30.2
06:20 1023 30.21 852 25.16 8.1 46.6 53 -0.9 30.3
06:25 1023 30.21 852 25.16 8.5 47.3 51 -1 30.3
06:30 1023 30.21 852 25.16 9 48.1 49 -1.2 29.9
06:35 1023 30.21 852 25.16 8.9 48 51 -0.6 31
06:40 1023 30.21 852 25.16 9.5 49.2 51 0 32
06:45 1023 30.21 852 25.16 10.1 50.2 50 0.3 32.5
06:50 1023 30.21 852 25.16 10.4 50.8 43 -1.5 29.4
06:55 1023 30.21 852 25.16 10.8 51.5 46 -0.4 31.3
07:00 1023 30.21 852 25.16 11.3 52.4 46 0.2 32.3
07:05 1023 30.21 852 25.16 11.8 53.3 43 -0.4 31.2
07:10 1023 30.21 852 25.16 11.7 53 45 0.1 32.2
07:15 1023 30.21 852 25.16 11.3 52.3 43 -0.9 30.4
07:20 1023 30.21 852 25.16 11.6 52.8 42 -0.8 30.6
07:25 1023 30.21 852 25.16 11.7 53 43 -0.5 31.2
07:30 1023 30.21 852 25.16 11.6 53 45 0.2 32.4
07:35 1023 30.21 852 25.16 11.6 52.8 44 -0.1 31.7
07:40 1023 30.21 852 25.16 12.2 53.9 41 -0.7 30.8
07:45 1023 30.21 852 25.16 12.1 53.8 43 0 32.1
07:50 1023 30.21 852 25.16 11.9 53.5 41 -0.9 30.4
07:55 1023 30.21 852 25.16 12 53.5 41 -0.7 30.7
08:00 1022 30.18 852 25.16 11.5 52.6 43 -0.6 30.9
08:05 1022 30.18 852 25.16 11.5 52.7 39 -1.8 28.8
08:10 1022 30.18 852 25.16 12 53.5 43 -0.3 31.4
08:15 1022 30.18 852 25.16 12 53.7 42 -0.6 31
08:20 1022 30.18 852 25.16 12.4 54.4 40 -0.8 30.6
08:25 1022 30.18 852 25.16 12.5 54.4 42 0 32
08:30 1022 30.18 852 25.16 13.1 55.6 39 -0.4 31.3
08:35 1022 30.18 852 25.16 13 55.3 42 0.4 32.6
08:40 1022 30.18 852 25.16 13.3 56 39 -0.2 31.7
08:45 1022 30.18 851 25.13 13.3 56 41 0.3 32.6
08:50 1022 30.18 851 25.13 13.1 55.6 40 -0.3 31.5
08:55 1022 30.18 851 25.13 14.1 57.4 36 -0.7 30.7
09:00 1022 30.18 851 25.13 13.7 56.6 38 -0.4 31.3
09:05 1022 30.18 851 25.13 14.1 57.3 36 -0.6 30.9
09:10 1022 30.18 851 25.13 15 58.9 35 -0.4 31.3
09:15 1022 30.18 851 25.13 14.3 57.7 40 0.8 33.4
09:20 1022 30.18 851 25.13 13.4 56.1 37 -0.9 30.4
09:25 1022 30.18 851 25.13 14.3 57.8 37 -0.2 31.6
09:30 1022 30.18 851 25.13 14.8 58.6 36 -0.2 31.7
09:35 1022 30.18 851 25.13 15.4 59.6 36 0.5 32.9
09:40 1022 30.18 851 25.13 14.5 58.2 39 0.8 33.5
09:45 1022 30.18 851 25.13 13.8 56.8 38 -0.1 31.8
09:50 1022 30.18 851 25.13 14 57.3 39 0.4 32.6
09:55 1022 30.18 851 25.13 14.9 58.8 35 -0.2 31.7
10:00 1022 30.18 851 25.13 15.5 59.8 35 0.2 32.4
10:05 1022 30.18 851 25.13 16.1 60.9 35 0.7 33.3
10:10 1022 30.18 851 25.13 16.4 61.5 33 0.3 32.5
10:15 1021 30.15 851 25.13 16.6 62 34 0.8 33.4
10:20 1021 30.15 851 25.13 16.4 61.5 34 0.6 33.1
10:25 1021 30.15 851 25.13 16.5 61.7 34 0.7 33.3
10:30 1021 30.15 850 25.1 17 62.6 33 0.8 33.4
10:35 1021 30.15 850 25.1 17.6 63.6 32 0.9 33.6
10:40 1021 30.15 850 25.1 17 62.6 37 2.2 36
10:45 1021 30.15 850 25.1 15.6 60 39 1.7 35.1
10:50 1021 30.15 850 25.1 15.7 60.3 37 1.1 34
10:55 1021 30.15 850 25.1 16.7 62 34 0.7 33.3
11:00 1021 30.15 850 25.1 17.1 62.7 35 1.5 34.6
11:05 1021 30.15 850 25.1 16.5 61.7 36 1.5 34.7
11:10 1021 30.15 850 25.1 16.9 62.4 36 1.8 35.2
11:15 1021 30.15 850 25.1 16.8 62.2 34 0.8 33.5
11:20 1021 30.15 850 25.1 18.1 64.6 31 1.1 34
11:25 1021 30.15 850 25.1 18 64.5 37 3.3 38
11:30 1021 30.15 850 25.1 16.8 62.3 35 1.3 34.3
11:35 1021 30.15 850 25.1 17.8 64.1 33 1.4 34.5
11:40 1021 30.15 850 25.1 18.7 65.7 32 2 35.6
11:45 1021 30.15 850 25.1 18.5 65.2 31 1.4 34.4
11:50 1021 30.15 850 25.1 18.7 65.7 32 1.8 35.2
11:55 1021 30.15 850 25.1 17.5 63.4 33 1 33.9
12:00 1020 30.12 850 25.1 18.1 64.5 33 1.6 34.8
12:05 1020 30.12 850 25.1 19.1 66.3 31 1.9 35.4
12:10 1020 30.12 850 25.1 18.1 64.6 34 2 35.6
12:15 1020 30.12 850 25.1 18.6 65.5 31 1.2 34.2
12:20 1020 30.12 849 25.07 19.2 66.6 30 1.6 34.8
12:25 1020 30.12 849 25.07 19.8 67.6 31 2.2 35.9
12:30 1020 30.12 849 25.07 19.7 67.5 30 1.9 35.5
12:35 1020 30.12 849 25.07 19.5 67.1 29 1 33.9
12:40 1020 30.12 849 25.07 19.3 66.7 31 1.9 35.5
12:45 1020 30.12 849 25.07 19.4 66.9 30 1.8 35.2
12:50 1020 30.12 849 25.07 20.4 68.7 28 1.6 35
12:55 1020 30.12 849 25.07 19.5 67.2 30 1.6 34.9
13:00 1020 30.12 849 25.07 19.9 67.8 29 1.4 34.4
13:05 1020 30.12 849 25.07 20.7 69.2 29 2.1 35.8
13:10 1020 30.12 849 25.07 21 69.7 28 2.1 35.7
13:15 1020 30.12 849 25.07 21.2 70.2 28 2.1 35.8
13:20 1020 30.12 849 25.07 20.6 69.1 29 2.3 36.1
13:25 1020 30.12 849 25.07 20.4 68.6 29 1.8 35.2
13:30 1020 30.12 849 25.07 21.2 70.1 27 1.8 35.3
13:35 1020 30.12 849 25.07 21.4 70.6 27 1.9 35.3
13:40 1020 30.12 849 25.07 21.9 71.4 26 1.9 35.5
13:45 1020 30.12 849 25.07 21.4 70.6 27 1.8 35.2
13:50 1019 30.09 849 25.07 20.3 68.5 29 1.9 35.4
13:55 1019 30.09 849 25.07 21.2 70.2 26 1.4 34.4
14:00 1019 30.09 849 25.07 22.2 71.9 26 1.7 35.1
14:05 1019 30.09 848 25.04 22.4 72.3 25 1.7 35.1
14:10 1019 30.09 848 25.04 22.5 72.5 26 2 35.7
14:15 1019 30.09 848 25.04 22.5 72.4 25 1.7 35
14:20 1019 30.09 848 25.04 21.4 70.5 26 1.2 34.1
14:25 1019 30.09 848 25.04 21.7 71 25 1.1 33.9
14:30 1019 30.09 848 25.04 23.3 73.9 24 1.6 34.9
14:35 1019 30.09 848 25.04 22.2 72 26 1.8 35.2
14:40 1019 30.09 848 25.04 22.8 73 25 2.1 35.7
14:45 1019 30.09 848 25.04 22.6 72.6 26 2.2 36
14:50 1019 30.09 848 25.04 22.3 72.2 25 1.7 35.1
14:55 1019 30.09 848 25.04 22.2 71.9 26 1.8 35.2
15:00 1018 30.06 848 25.04 22.5 72.4 25 1.9 35.4
15:05 1018 30.06 848 25.04 22.6 72.6 25 1.7 35.1
15:10 1018 30.06 847 25.01 22.2 72 26 1.9 35.4
15:15 1018 30.06 847 25.01 22.7 72.8 25 1.9 35.5
15:20 1018 30.06 847 25.01 22.5 72.5 25 1.8 35.3
15:25 1018 30.06 847 25.01 21.7 71 28 2.7 36.8
15:30 1018 30.06 847 25.01 21.9 71.3 26 1.7 35.1
15:35 1018 30.06 847 25.01 22.2 71.9 25 1.5 34.7
15:40 1018 30.06 847 25.01 21.6 70.9 26 1.3 34.3
15:45 1018 30.06 847 25.01 22.5 72.5 26 2.3 36.1
15:50 1018 30.06 847 25.01 21.7 71.1 27 1.9 35.4
15:55 1018 30.06 847 25.01 21.7 71 24 0.6 33
16:00 1018 30.06 847 25.01 21.9 71.3 26 1.9 35.4
16:05 1018 30.06 847 25.01 21.4 70.5 25 0.6 33.1
16:10 1018 30.06 847 25.01 21.1 69.9 23 -0.7 30.7
16:15 1018 30.06 847 25.01 20.6 69.1 23 -1.2 29.8
16:20 1018 30.06 847 25.01 20.8 69.5 20 -3 26.5
16:25 1018 30.06 847 25.01 21.1 70 19 -3.4 26
16:30 1018 30.06 847 25.01 20.9 69.7 18 -3.9 25
16:35 1018 30.06 847 25.01 21.4 70.5 18 -3.5 25.7
16:40 1018 30.06 847 25.01 21.2 70.1 19 -3.5 25.6
16:45 1018 30.06 847 25.01 21.4 70.4 20 -2.6 27.3
16:50 1018 30.06 847 25.01 21.3 70.4 19 -3 26.7
16:55 1018 30.06 847 25.01 21.6 70.8 19 -3.1 26.5
17:00 1018 30.06 847 25.01 21.8 71.2 18 -3.6 25.5
17:05 1018 30.06 847 25.01 21.7 71 19 -2.8 26.9
17:10 1018 30.06 847 25.01 21.7 71.1 17 -4.4 24.1
17:15 1018 30.06 847 25.01 21.3 70.3 17 -4.2 24.4
17:20 1017 30.03 847 25.01 21.3 70.3 17 -4.4 24.1
17:25 1017 30.03 847 25.01 21.2 70.2 16 -5.3 22.5
17:30 1017 30.03 847 25.01 21 69.7 17 -5 23
17:35 1017 30.03 847 25.01 20.7 69.3 17 -4.7 23.5
17:40 1017 30.03 847 25.01 20.9 69.5 18 -4.3 24.3
17:45 1017 30.03 847 25.01 21.4 70.5 18 -3.9 25
17:50 1017 30.03 846 24.98 21.4 70.4 18 -4 24.9
17:55 1017 30.03 846 24.98 20.9 69.7 20 -2.6 27.3
18:00 1017 30.03 846 24.98 20.7 69.3 21 -2.1 28.2
18:05 1017 30.03 846 24.98 20.7 69.2 21 -2.1 28.2
18:10 1017 30.03 846 24.98 20.6 69.2 28 1.7 35
18:15 1017 30.03 846 24.98 20.2 68.3 31 2.4 36.4
18:20 1017 30.03 846 24.98 19.8 67.6 34 3.7 38.6
18:25 1017 30.03 846 24.98 19.6 67.2 35 3.8 38.8
18:30 1017 30.03 846 24.98 19.4 66.9 37 4.3 39.7
18:35 1017 30.03 847 25.01 19.2 66.5 37 4.4 39.8
18:40 1017 30.03 847 25.01 19 66.2 38 4.4 39.9
18:45 1017 30.03 846 24.98 18.9 66 39 4.7 40.5
18:50 1017 30.03 846 24.98 18.7 65.7 40 5.1 41.1
18:55 1017 30.03 846 24.98 18.6 65.4 41 5.2 41.4
19:00 1017 30.03 846 24.98 18.4 65.2 42 5.4 41.7
19:05 1017 30.03 846 24.98 18.3 64.9 43 5.5 41.9
19:10 1017 30.03 846 24.98 18.2 64.8 43 5.5 41.8
19:15 1017 30.03 846 24.98 18.1 64.7 44 5.7 42.2
19:20 1017 30.03 846 24.98 18.1 64.5 44 5.7 42.3
19:25 1017 30.03 846 24.98 18 64.4 45 5.9 42.6
19:30 1017 30.03 847 25.01 18 64.3 45 6 42.7
19:35 1017 30.03 847 25.01 17.9 64.2 44 5.7 42.2
19:40 1017 30.03 847 25.01 17.8 64.1 45 5.8 42.4
19:45 1017 30.03 847 25.01 17.8 64 45 5.8 42.4
19:50 1017 30.03 847 25.01 17.6 63.7 46 5.9 42.6
19:55 1017 30.03 847 25.01 17.4 63.4 46 5.9 42.6
20:00 1017 30.03 847 25.01 17.3 63.1 47 6 42.8
20:05 1017 30.03 847 25.01 17 62.7 48 5.9 42.7
20:10 1017 30.03 847 25.01 16.9 62.5 47 5.8 42.4
20:15 1017 30.03 847 25.01 16.8 62.3 48 5.8 42.4
20:20 1017 30.03 847 25.01 16.8 62.2 48 5.8 42.4
20:25 1017 30.03 847 25.01 16.8 62.2 48 5.9 42.6
20:30 1017 30.03 847 25.01 16.6 61.8 49 6 42.9
20:35 1017 30.03 847 25.01 16.4 61.5 50 6.1 43
20:40 1017 30.03 847 25.01 16.3 61.4 51 6.3 43.4
20:45 1017 30.03 847 25.01 16.3 61.3 52 6.5 43.7
20:50 1017 30.03 847 25.01 16.3 61.3 53 6.7 44.1
20:55 1017 30.03 847 25.01 16.3 61.3 53 6.8 44.2
21:00 1017 30.03 847 25.01 16.4 61.5 53 7 44.6
21:05 1017 30.03 847 25.01 16.4 61.5 53 7 44.6
21:10 1017 30.03 847 25.01 16.4 61.5 53 6.9 44.5
21:15 1017 30.03 846 24.98 16.5 61.6 53 7 44.6
21:20 1017 30.03 846 24.98 16.4 61.6 53 6.8 44.3
21:25 1017 30.03 847 25.01 16.5 61.6 53 7 44.6
21:30 1017 30.03 847 25.01 16.4 61.5 54 7 44.7
21:35 1017 30.03 847 25.01 16.3 61.3 54 7 44.7
21:40 1017 30.03 847 25.01 16.2 61.2 54 7 44.5
21:45 1017 30.03 847 25.01 16.2 61.2 54 6.9 44.4
21:50 1017 30.03 847 25.01 16.2 61.1 54 6.9 44.5
21:55 1017 30.03 847 25.01 16 60.8 55 7 44.6
22:00 1017 30.03 847 25.01 15.9 60.7 55 6.9 44.4
22:05 1017 30.03 847 25.01 16 60.8 54 6.8 44.3
22:10 1017 30.03 847 25.01 16 60.8 54 6.9 44.4
22:15 1017 30.03 847 25.01 15.9 60.7 55 6.9 44.5
22:20 1017 30.03 846 24.98 15.8 60.4 56 7 44.6
22:25 1017 30.03 846 24.98 15.7 60.2 55 6.9 44.3
22:30 1017 30.03 846 24.98 15.6 60.1 56 7 44.6
22:35 1017 30.03 846 24.98 15.6 60.1 56 7 44.6
22:40 1017 30.03 847 25.01 15.5 60 57 7 44.7
22:45 1017 30.03 847 25.01 15.5 59.9 56 7 44.6
22:50 1017 30.03 846 24.98 15.6 60 56 7 44.6
22:55 1017 30.03 846 24.98 15.5 59.9 56 6.9 44.5
23:00 1017 30.03 847 25.01 15.5 59.8 56 6.9 44.4
23:05 1017 30.03 847 25.01 15.5 59.8 56 6.9 44.3
23:10 1017 30.03 846 24.98 15.4 59.8 56 6.9 44.4
23:15 1017 30.03 847 25.01 15.3 59.6 56 6.8 44.2
23:20 1017 30.03 847 25.01 15.2 59.4 56 6.7 44.1
23:25 1017 30.03 847 25.01 15.2 59.3 56 6.6 43.9
23:30 1017 30.03 847 25.01 15 59.1 56 6.5 43.7
23:35 1017 30.03 847 25.01 15 58.9 57 6.5 43.7
23:40 1017 30.03 846 24.98 14.8 58.7 57 6.5 43.6
23:45 1017 30.03 846 24.98 14.7 58.5 57 6.4 43.6
23:50 1017 30.03 846 24.98 14.6 58.2 58 6.4 43.5
23:55 1017 30.03 846 24.98 14.4 57.9 58 6.3 43.4
24:00 1017 30.03 846 24.98 14.4 57.9 58 6.3 43.3